Aviation Digital Data Service (ADDS)

Output produced by METARs form (2011 UTC 18 October 2018)
found at http://aviationweather.gov/metar/data/
 
KOEO 181955Z AUTO 20009KT 10SM CLR 19/04 A3019 RMK AO2 T01850043